Washington, DC

1:44 AM EDT on August 31, 2015 (GMT -0400)
Eckington Pl, NE | | Change Station
CLOSE
Current Station
Personal Weather Station
Location: Washington, DC
Elevation: 90 ft
Nearby Weather Stations

Elev 90 ft 38.91 °N, 77.01 °W | Updated 1 minute ago

Overcast
Overcast
78.4 °F
Feels Like 81 °F
N
3.0
Wind Variable Wind from SSE
Gusts 7.0 mph

Today
High -- | Low -- °F
--% Chance of Precip.
Yesterday
High -- | Low -- °F
Precip. -- in
6:35 AM 7:40 PM
Full, 97% visible
Pressure 30.09 in
Visibility 10.0 miles
Clouds Overcast 14000 ft
Heat Index 81 °F
Dew Point 67 °F
Humidity 69%
Rainfall Not available.
Snow Depth Not available.
UV 0 out of 12
Pollen 10.30 out of 12
Air Quality Not available.
Flu Activity Not available.
METAR KDCA 310452Z 20008KT 10SM OVC140 26/18 A3009 RMK AO2 SLP189 T02560183 403060206
Pressure 30.09 in
Visibility 10.0 miles
Clouds Overcast 14000 ft
Heat Index 81 °F
Dew Point 67 °F
Humidity 69%
Rainfall Not available.
Snow Depth Not available.
UV 0 out of 12
Pollen 10.30 out of 12
Air Quality Not available.
Flu Activity Not available.
METAR KDCA 310452Z 20008KT 10SM OVC140 26/18 A3009 RMK AO2 SLP189 T02560183 403060206

10-Day Weather Forecast

×

Almanac

Astronomy

Aug. 31, 2015 Rise Set
Actual Time
Civil Twilight
Nautical Twilight
Astronomical Twilight
Moon
Length of Visible Light
Length of Day
Tomorrow will be .
, % of the Moon is Illuminated

Today's Extremes

State Highs State Lows

Community

WunderPhotos

Upload Photos

1,851,215 photos uploaded!

WunderBlogs® & News

Nearby

Air Quality

  Air Quality AQ Index Pollutant
Not available.

Snow Depth

Station Depth Elevation

Earthquake Activity

City Distance Mag. Time & Date
Minimum magnitude displayed is 2.5.

Coastal Water Temperatures

Place Temperature

Stations

Nearby Weather Stations

Station Location Temp. Windchill Dew Point Humidity Wind Precip. Elev Updated Type